^^
B2 Weather Station Historical Data
Daily Summary for March 14, 2018 Units:  English    Metric   Both
Daily Weekly Monthly Yearly Custom
  High: Low: Average:
Temperature: 47.7 °F 19.4 °F 31.4 °F
Dew Point: 27.6 °F 13.1 °F 20.1 °F
Humidity: 83% 37% 65%
Wind Speed: 20.0mph 0.0mph 6.7mph
Wind Gust: 20.0mph - -
Wind- - WSW
Pressure: 30.24 in 29.82 in -
Precipitation: 0.00 in    
Historical Graphs
 
 
Tabular Data for March 14, 2018
Time Temperature Dew Point Pressure Wind Wind Speed Wind Gust Humidity Rainfall Rate (Hourly) solar
00:04 20.9 °F 15.1 °F 30.24 in NW 10.4 mph 10.4 mph 78% 0.00 in 0.0 W/m2
00:09 21.0 °F 14.9 °F 30.24 in NW 9.2 mph 9.2 mph 77% 0.00 in 0.0 W/m2
00:14 20.9 °F 14.8 °F 30.24 in NW 8.1 mph 8.1 mph 77% 0.00 in 0.0 W/m2
00:19 20.7 °F 14.6 °F 30.24 in NW 8.1 mph 8.1 mph 77% 0.00 in 0.0 W/m2
00:24 20.5 °F 14.4 °F 30.24 in Calm     77% 0.00 in 0.0 W/m2
00:29 20.3 °F 14.2 °F 30.24 in WNW 3.5 mph 3.5 mph 77% 0.00 in 0.0 W/m2
00:34 20.3 °F 14.2 °F 30.24 in WNW 5.8 mph 5.8 mph 77% 0.00 in 0.0 W/m2
00:39 20.3 °F 14.2 °F 30.24 in NW 6.9 mph 6.9 mph 77% 0.00 in 0.0 W/m2
00:44 20.3 °F 13.9 °F 30.24 in Calm     76% 0.00 in 0.0 W/m2
00:49 20.5 °F 14.1 °F 30.24 in West 3.5 mph 3.5 mph 76% 0.00 in 0.0 W/m2
00:54 20.4 °F 13.7 °F 30.24 in WNW 5.0 mph 5.0 mph 75% 0.00 in 0.0 W/m2
00:59 20.3 °F 13.6 °F 30.24 in WNW 3.5 mph 3.5 mph 75% 0.00 in 0.0 W/m2
01:04 20.3 °F 13.6 °F 30.24 in WNW 4.6 mph 4.6 mph 75% 0.00 in 0.0 W/m2
01:09 20.2 °F 13.5 °F 30.24 in WNW 3.5 mph 3.5 mph 75% 0.00 in 0.0 W/m2
01:14 20.2 °F 13.5 °F 30.24 in WNW 5.8 mph 5.8 mph 75% 0.00 in 0.0 W/m2
01:19 20.2 °F 13.5 °F 30.24 in WNW 7.0 mph 7.0 mph 75% 0.00 in 0.0 W/m2
01:24 20.2 °F 13.2 °F 30.24 in WNW 8.0 mph 8.0 mph 74% 0.00 in 0.0 W/m2
01:29 20.2 °F 13.2 °F 30.24 in WNW 3.5 mph 3.5 mph 74% 0.00 in 0.0 W/m2
01:34 20.3 °F 13.3 °F 30.24 in WNW 5.8 mph 5.8 mph 74% 0.00 in 0.0 W/m2
01:39 20.3 °F 13.3 °F 30.24 in WNW 4.6 mph 4.6 mph 74% 0.00 in 0.0 W/m2
01:44 20.4 °F 13.4 °F 30.24 in WNW 1.2 mph 1.2 mph 74% 0.00 in 0.0 W/m2
01:49 20.6 °F 13.3 °F 30.24 in WNW 4.6 mph 4.6 mph 73% 0.00 in 0.0 W/m2
01:54 20.7 °F 13.4 °F 30.24 in WNW 6.9 mph 6.9 mph 73% 0.00 in 0.0 W/m2
01:59 20.7 °F 13.4 °F 30.24 in WNW 8.1 mph 8.1 mph 73% 0.00 in 0.0 W/m2
02:04 20.7 °F 13.4 °F 30.24 in WNW 3.5 mph 3.5 mph 73% 0.00 in 0.0 W/m2
02:09 20.7 °F 13.4 °F 30.24 in WNW 3.5 mph 3.5 mph 73% 0.00 in 0.0 W/m2
02:14 20.7 °F 13.4 °F 30.24 in WNW 2.3 mph 2.3 mph 73% 0.00 in 0.0 W/m2
02:19 20.6 °F 13.3 °F 30.23 in WNW 3.5 mph   73% 0.00 in 0.0 W/m2
02:24 20.7 °F 13.4 °F 30.23 in WNW 4.6 mph 4.6 mph 73% 0.00 in 0.0 W/m2
02:29 20.7 °F 13.4 °F 30.23 in West 1.2 mph 1.2 mph 73% 0.00 in 0.0 W/m2
02:34 20.7 °F 13.4 °F 30.23 in Calm     73% 0.00 in 0.0 W/m2
02:39 20.7 °F 13.4 °F 30.23 in Calm     73% 0.00 in 0.0 W/m2
02:44 20.6 °F 13.3 °F 30.22 in Calm     73% 0.00 in 0.0 W/m2
02:49 20.4 °F 13.1 °F 30.22 in Calm     73% 0.00 in 0.0 W/m2
02:54 20.4 °F 13.1 °F 30.22 in Calm     73% 0.00 in 0.0 W/m2
02:59 20.4 °F 13.4 °F 30.22 in Calm     74% 0.00 in 0.0 W/m2
03:04 20.6 °F 13.9 °F 30.22 in Calm     75% 0.00 in 0.0 W/m2
03:09 20.7 °F 14.0 °F 30.22 in Calm     75% 0.00 in 0.0 W/m2
03:14 20.7 °F 14.3 °F 30.22 in West 1.2 mph 1.2 mph 76% 0.00 in 0.0 W/m2
03:19 20.8 °F 14.4 °F 30.21 in Calm     76% 0.00 in 0.0 W/m2
03:24 20.8 °F 14.7 °F 30.21 in West 1.2 mph 1.2 mph 77% 0.00 in 0.0 W/m2
03:29 20.7 °F 14.6 °F 30.21 in Calm     77% 0.00 in 0.0 W/m2
03:34 20.4 °F 14.3 °F 30.21 in West 2.3 mph 2.3 mph 77% 0.00 in 0.0 W/m2
03:39 20.2 °F 14.4 °F 30.21 in West 1.2 mph 1.2 mph 78% 0.00 in 0.0 W/m2
03:44 20.0 °F 14.2 °F 30.20 in West 2.3 mph 2.3 mph 78% 0.00 in 0.0 W/m2
03:49 19.9 °F 14.1 °F 30.20 in West 1.2 mph 1.2 mph 78% 0.00 in 0.0 W/m2
03:54 19.9 °F 14.1 °F 30.20 in West 3.5 mph 3.5 mph 78% 0.00 in 0.0 W/m2
03:59 20.1 °F 14.3 °F 30.20 in WSW 3.5 mph 3.5 mph 78% 0.00 in 0.0 W/m2
04:04 20.2 °F 14.4 °F 30.20 in WSW 1.2 mph   78% 0.00 in 0.0 W/m2
04:09 20.2 °F 14.4 °F 30.20 in West 2.3 mph 2.3 mph 78% 0.00 in 0.0 W/m2
04:14 20.3 °F 14.5 °F 30.20 in West 2.3 mph 2.3 mph 78% 0.00 in 0.0 W/m2
04:19 20.3 °F 14.5 °F 30.20 in West 1.2 mph 1.2 mph 78% 0.00 in 0.0 W/m2
04:24 20.4 °F 14.6 °F 30.20 in WSW 4.6 mph 4.6 mph 78% 0.00 in 0.0 W/m2
04:29 20.5 °F 14.7 °F 30.20 in West 4.6 mph 4.6 mph 78% 0.00 in 0.0 W/m2
04:34 20.6 °F 14.8 °F 30.20 in WNW 3.5 mph 3.5 mph 78% 0.00 in 0.0 W/m2
04:39 20.7 °F 14.9 °F 30.20 in West 3.5 mph 3.5 mph 78% 0.00 in 0.0 W/m2
04:44 20.7 °F 14.9 °F 30.20 in West 4.6 mph 4.6 mph 78% 0.00 in 0.0 W/m2
04:49 20.7 °F 14.9 °F 30.20 in West 3.5 mph 3.5 mph 78% 0.00 in 0.0 W/m2
04:54 20.7 °F 14.9 °F 30.20 in West 6.9 mph 6.9 mph 78% 0.00 in 0.0 W/m2
04:59 20.6 °F 14.8 °F 30.20 in West 3.5 mph 3.5 mph 78% 0.00 in 0.0 W/m2
05:04 20.6 °F 15.1 °F 30.20 in WSW 9.2 mph 9.2 mph 79% 0.00 in 0.0 W/m2
05:09 20.6 °F 15.1 °F 30.20 in WSW 6.9 mph 6.9 mph 79% 0.00 in 0.0 W/m2
05:14 20.6 °F 15.1 °F 30.20 in West 3.5 mph 3.5 mph 79% 0.00 in 0.0 W/m2
05:19 20.7 °F 15.2 °F 30.20 in West 5.8 mph 5.8 mph 79% 0.00 in 0.0 W/m2
05:24 20.7 °F 15.2 °F 30.21 in West 6.9 mph 6.9 mph 79% 0.00 in 0.0 W/m2
05:29 20.6 °F 15.1 °F 30.20 in WSW 6.0 mph 6.0 mph 79% 0.00 in 0.0 W/m2
05:34 20.6 °F 15.1 °F 30.20 in West 9.2 mph 9.2 mph 79% 0.00 in 0.0 W/m2
05:39 20.6 °F 15.1 °F 30.20 in WSW 5.8 mph 5.8 mph 79% 0.00 in 0.0 W/m2
05:44 20.2 °F 15.0 °F 30.20 in Calm     80% 0.00 in 0.0 W/m2
05:49 19.9 °F 15.0 °F 30.20 in Calm     81% 0.00 in 0.0 W/m2
05:54 19.7 °F 14.8 °F 30.20 in WSW 3.5 mph 3.5 mph 81% 0.00 in 0.0 W/m2
05:59 19.6 °F 15.0 °F 30.20 in WSW 2.3 mph 2.3 mph 82% 0.00 in 0.0 W/m2
06:04 19.5 °F 14.9 °F 30.20 in West 1.2 mph   82% 0.00 in 0.0 W/m2
06:09 19.5 °F 14.9 °F 30.19 in Calm     82% 0.00 in 0.0 W/m2
06:14 19.4 °F 14.8 °F 30.19 in West 4.6 mph 4.6 mph 82% 0.00 in 0.0 W/m2
06:19 19.4 °F 15.1 °F 30.19 in WSW 4.6 mph 4.6 mph 83% 0.00 in 0.0 W/m2
06:24 19.5 °F 15.2 °F 30.19 in WSW 2.3 mph 2.3 mph 83% 0.00 in 0.0 W/m2
06:29 19.6 °F 15.3 °F 30.19 in Calm     83% 0.00 in 0.0 W/m2
06:34 19.6 °F 15.3 °F 30.19 in West 3.5 mph 3.5 mph 83% 0.00 in 0.0 W/m2
06:39 19.7 °F 15.4 °F 30.19 in WSW 7.0 mph 7.0 mph 83% 0.00 in 0.0 W/m2
06:44 20.0 °F 15.7 °F 30.19 in WSW 4.6 mph 4.6 mph 83% 0.00 in 0.0 W/m2
06:49 20.1 °F 15.8 °F 30.19 in WSW 3.5 mph 3.5 mph 83% 0.00 in 0.0 W/m2
06:54 20.1 °F 15.8 °F 30.19 in WSW 3.5 mph 3.5 mph 83% 0.00 in 0.0 W/m2
07:00 20.2 °F 15.9 °F 30.19 in West 5.8 mph 5.8 mph 83% 0.00 in 0.0 W/m2
07:05 20.4 °F 16.1 °F 30.19 in West 6.9 mph 6.9 mph 83% 0.00 in 7.0 W/m2
07:10 20.6 °F 16.3 °F 30.19 in WSW 5.8 mph   83% 0.00 in 7.0 W/m2
07:15 21.1 °F 16.7 °F 30.19 in WSW 6.9 mph 6.9 mph 83% 0.00 in 11.0 W/m2
07:20 21.3 °F 16.9 °F 30.19 in WNW 4.6 mph 4.6 mph 83% 0.00 in 14.0 W/m2
07:25 21.4 °F 17.0 °F 30.19 in West 1.2 mph 1.2 mph 83% 0.00 in 19.0 W/m2
07:30 21.5 °F 17.1 °F 30.19 in West 1.0 mph   83% 0.00 in 21.0 W/m2
07:35 21.6 °F 17.2 °F 30.19 in West 1.2 mph   83% 0.00 in 25.0 W/m2
07:40 21.6 °F 17.2 °F 30.19 in WSW 4.6 mph 4.6 mph 83% 0.00 in 25.0 W/m2
07:45 21.7 °F 17.1 °F 30.18 in West 6.9 mph 6.9 mph 82% 0.00 in 23.0 W/m2
07:50 21.7 °F 17.1 °F 30.18 in WSW 4.6 mph 4.6 mph 82% 0.00 in 30.0 W/m2
07:55 21.6 °F 17.0 °F 30.19 in WSW 5.8 mph 5.8 mph 82% 0.00 in 47.0 W/m2
08:00 21.7 °F 17.1 °F 30.19 in WSW 6.9 mph 6.9 mph 82% 0.00 in 81.0 W/m2
08:05 21.9 °F 17.2 °F 30.19 in West 4.6 mph 4.6 mph 82% 0.00 in 111.0 W/m2
08:10 22.1 °F 17.4 °F 30.19 in WSW 2.0 mph 2.0 mph 82% 0.00 in 130.0 W/m2
08:15 22.4 °F 17.5 °F 30.19 in West 3.5 mph 3.5 mph 81% 0.00 in 160.0 W/m2
08:20 22.8 °F 17.8 °F 30.19 in WSW 4.6 mph 4.6 mph 81% 0.00 in 142.0 W/m2
08:25 23.1 °F 17.6 °F 30.19 in West 4.0 mph 4.0 mph 79% 0.00 in 204.0 W/m2
08:30 23.4 °F 17.8 °F 30.19 in WSW 5.8 mph 5.8 mph 79% 0.00 in 232.0 W/m2
08:35 23.8 °F 17.9 °F 30.19 in West 7.0 mph 7.0 mph 78% 0.00 in 248.0 W/m2
08:40 24.1 °F 17.9 °F 30.19 in West 6.9 mph 6.9 mph 77% 0.00 in 239.0 W/m2
08:45 24.5 °F 18.0 °F 30.19 in SW 5.8 mph 5.8 mph 76% 0.00 in 244.0 W/m2
08:50 24.7 °F 18.2 °F 30.18 in WSW 4.0 mph 4.0 mph 76% 0.00 in 294.0 W/m2
08:55 25.1 °F 18.3 °F 30.18 in SW 8.1 mph 8.1 mph 75% 0.00 in 287.0 W/m2
09:00 25.4 °F 18.6 °F 30.18 in West 8.1 mph 8.1 mph 75% 0.00 in 316.0 W/m2
09:05 25.7 °F 18.6 °F 30.18 in West 9.2 mph 9.2 mph 74% 0.00 in 357.0 W/m2
09:10 26.0 °F 18.8 °F 30.18 in WSW 9.0 mph 9.0 mph 74% 0.00 in 404.0 W/m2
09:15 26.4 °F 19.2 °F 30.18 in SW 11.5 mph 11.5 mph 74% 0.00 in 290.0 W/m2
09:20 26.5 °F 19.3 °F 30.18 in WSW 8.1 mph 8.1 mph 74% 0.00 in 394.0 W/m2
09:25 26.6 °F 19.4 °F 30.18 in West 10.4 mph 10.4 mph 74% 0.00 in 441.0 W/m2
09:30 26.7 °F 19.5 °F 30.18 in WSW 9.2 mph 9.2 mph 74% 0.00 in 429.0 W/m2
09:35 26.9 °F 20.0 °F 30.17 in WSW 2.3 mph 2.3 mph 75% 0.00 in 438.0 W/m2
09:40 27.2 °F 20.3 °F 30.17 in WSW 8.1 mph 8.1 mph 75% 0.00 in 462.0 W/m2
09:45 27.5 °F 20.6 °F 30.18 in West 3.5 mph 3.5 mph 75% 0.00 in 478.0 W/m2
09:50 27.8 °F 20.6 °F 30.17 in WSW 11.5 mph 11.5 mph 74% 0.00 in 487.0 W/m2
09:55 28.1 °F 20.9 °F 30.18 in WSW 10.4 mph 10.4 mph 74% 0.00 in 503.0 W/m2
10:00 28.5 °F 21.3 °F 30.18 in West 4.6 mph 4.6 mph 74% 0.00 in 513.0 W/m2
10:05 28.9 °F 21.3 °F 30.18 in WSW 11.5 mph 11.5 mph 73% 0.00 in 527.0 W/m2
10:10 29.3 °F 21.4 °F 30.18 in WNW 9.2 mph 9.2 mph 72% 0.00 in 541.0 W/m2
10:15 29.7 °F 21.8 °F 30.18 in West 11.5 mph 11.5 mph 72% 0.00 in 554.0 W/m2
10:20 30.1 °F 21.5 °F 30.18 in SW 10.4 mph 10.4 mph 70% 0.00 in 566.0 W/m2
10:25 30.4 °F 21.8 °F 30.18 in WNW 11.5 mph 11.5 mph 70% 0.00 in 577.0 W/m2
10:30 30.6 °F 21.3 °F 30.17 in WSW 11.5 mph 11.5 mph 68% 0.00 in 591.0 W/m2
10:35 31.0 °F 21.7 °F 30.17 in WSW 11.5 mph 11.5 mph 68% 0.00 in 603.0 W/m2
10:40 31.3 °F 22.0 °F 30.17 in WSW 11.5 mph 11.5 mph 68% 0.00 in 613.0 W/m2
10:45 31.6 °F 21.5 °F 30.17 in WSW 12.0 mph 12.0 mph 66% 0.00 in 638.0 W/m2
10:50 31.8 °F 21.4 °F 30.16 in West 12.7 mph 12.7 mph 65% 0.00 in 643.0 W/m2
10:55 32.0 °F 21.6 °F 30.16 in WNW 10.4 mph 10.4 mph 65% 0.00 in 664.0 W/m2
11:00 32.4 °F 22.3 °F 30.16 in West 9.2 mph 9.2 mph 66% 0.00 in 682.0 W/m2
11:05 32.7 °F 21.9 °F 30.15 in WSW 11.5 mph 11.5 mph 64% 0.00 in 642.0 W/m2
11:10 32.9 °F 21.7 °F 30.16 in West 12.7 mph 12.7 mph 63% 0.00 in 622.0 W/m2
11:15 33.2 °F 22.3 °F 30.15 in WSW 10.4 mph 10.4 mph 64% 0.00 in 638.0 W/m2
11:20 33.3 °F 22.4 °F 30.15 in WSW 10.4 mph 10.4 mph 64% 0.00 in 608.0 W/m2
11:25 33.6 °F 22.7 °F 30.15 in SW 11.5 mph 11.5 mph 64% 0.00 in 642.0 W/m2
11:30 34.1 °F 22.4 °F 30.14 in WNW 10.4 mph 10.4 mph 62% 0.00 in 608.0 W/m2
11:35 34.3 °F 22.6 °F 30.14 in WSW 10.4 mph 10.4 mph 62% 0.00 in 529.0 W/m2
11:40 34.4 °F 22.3 °F 30.14 in WSW 11.5 mph 11.5 mph 61% 0.00 in 610.0 W/m2
11:45 34.7 °F 22.6 °F 30.14 in WSW 11.5 mph 11.5 mph 61% 0.00 in 619.0 W/m2
11:50 34.8 °F 22.3 °F 30.14 in WSW 16.1 mph 16.1 mph 60% 0.00 in 629.0 W/m2
11:55 34.8 °F 21.9 °F 30.13 in WSW 16.1 mph 16.1 mph 59% 0.00 in 615.0 W/m2
12:00 35.0 °F 22.1 °F 30.13 in SSW 16.1 mph 16.1 mph 59% 0.00 in 596.0 W/m2
12:05 34.9 °F 22.0 °F 30.13 in SW 10.4 mph 10.4 mph 59% 0.00 in 638.0 W/m2
12:10 35.4 °F 22.5 °F 30.12 in WSW 11.5 mph 11.5 mph 59% 0.00 in 775.0 W/m2
12:15 35.7 °F 22.4 °F 30.12 in West 11.5 mph 11.5 mph 58% 0.00 in 738.0 W/m2
12:20 36.2 °F 22.8 °F 30.12 in West 11.5 mph 11.5 mph 58% 0.00 in 795.0 W/m2
12:25 36.8 °F 23.0 °F 30.12 in West 11.5 mph 11.5 mph 57% 0.00 in 682.0 W/m2
12:30 36.7 °F 22.5 °F 30.11 in SW 10.4 mph 10.4 mph 56% 0.00 in 675.0 W/m2
12:35 37.0 °F 21.9 °F 30.11 in WNW 11.5 mph 11.5 mph 54% 0.00 in 606.0 W/m2
12:40 36.9 °F 22.2 °F 30.10 in WSW 11.5 mph 11.5 mph 55% 0.00 in 571.0 W/m2
12:45 37.0 °F 21.9 °F 30.10 in WSW 11.5 mph 11.5 mph 54% 0.00 in 605.0 W/m2
12:50 37.5 °F 23.6 °F 30.10 in WSW 10.4 mph 10.4 mph 57% 0.00 in 768.0 W/m2
12:55 38.0 °F 23.3 °F 30.09 in WSW 12.0 mph 12.0 mph 55% 0.00 in 782.0 W/m2
13:00 38.0 °F 21.9 °F 30.09 in West 9.2 mph 9.2 mph 52% 0.00 in 795.0 W/m2
13:05 38.4 °F 22.7 °F 30.09 in WSW 11.5 mph 11.5 mph 53% 0.00 in 763.0 W/m2
13:10 38.5 °F 21.5 °F 30.08 in WSW 13.8 mph 13.8 mph 50% 0.00 in 633.0 W/m2
13:15 38.7 °F 21.2 °F 30.08 in SW 15.0 mph 15.0 mph 49% 0.00 in 784.0 W/m2
13:20 39.1 °F 22.0 °F 30.07 in WSW 11.5 mph 11.5 mph 50% 0.00 in 809.0 W/m2
13:25 39.6 °F 22.0 °F 30.07 in West 5.8 mph 5.8 mph 49% 0.00 in 721.0 W/m2
15:56 46.1 °F 22.5 °F 29.94 in WSW 20.0 mph 20.0 mph 39% 0.00 in 522.0 W/m2
16:01 46.1 °F 23.1 °F 29.93 in SW 19.6 mph 19.6 mph 40% 0.00 in 512.0 W/m2
16:06 46.2 °F 23.2 °F 29.93 in SSW 11.5 mph 11.5 mph 40% 0.00 in 497.0 W/m2
16:11 46.7 °F 24.8 °F 29.93 in ESE 11.5 mph 11.5 mph 42% 0.00 in 485.0 W/m2
16:16 46.8 °F 24.3 °F 29.93 in SW 9.2 mph 9.2 mph 41% 0.00 in 471.0 W/m2
16:21 46.8 °F 23.7 °F 29.93 in SSW 13.8 mph 13.8 mph 40% 0.00 in 455.0 W/m2
16:26 46.6 °F 23.5 °F 29.92 in WSW 12.7 mph 12.7 mph 40% 0.00 in 441.0 W/m2
16:31 46.6 °F 23.5 °F 29.93 in WSW 16.1 mph 16.1 mph 40% 0.00 in 424.0 W/m2
16:36 46.5 °F 22.8 °F 29.93 in SW 13.8 mph 13.8 mph 39% 0.00 in 410.0 W/m2
16:41 46.6 °F 22.3 °F 29.92 in SW 15.0 mph 15.0 mph 38% 0.00 in 394.0 W/m2
16:46 46.8 °F 22.5 °F 29.92 in WSW 13.8 mph 13.8 mph 38% 0.00 in 380.0 W/m2
16:51 46.9 °F 23.2 °F 29.92 in SW 12.7 mph 12.7 mph 39% 0.00 in 366.0 W/m2
16:56 47.0 °F 23.3 °F 29.92 in West 13.8 mph 13.8 mph 39% 0.00 in 348.0 W/m2
17:01 46.9 °F 22.0 °F 29.92 in SW 15.0 mph 15.0 mph 37% 0.00 in 332.0 W/m2
17:06 47.0 °F 22.7 °F 29.92 in WSW 15.0 mph 15.0 mph 38% 0.00 in 315.0 W/m2
17:11 47.2 °F 22.2 °F 29.92 in SW 13.8 mph 13.8 mph 37% 0.00 in 302.0 W/m2
17:16 47.2 °F 22.2 °F 29.91 in WSW 17.3 mph 17.3 mph 37% 0.00 in 281.0 W/m2
17:21 47.5 °F 23.1 °F 29.91 in WSW 10.4 mph 10.4 mph 38% 0.00 in 264.0 W/m2
17:26 47.7 °F 23.3 °F 29.91 in WSW 15.0 mph 15.0 mph 38% 0.00 in 248.0 W/m2
17:31 47.4 °F 22.4 °F 29.91 in SSW 18.4 mph 18.4 mph 37% 0.00 in 227.0 W/m2
17:36 47.3 °F 22.3 °F 29.91 in WSW 13.8 mph 13.8 mph 37% 0.00 in 206.0 W/m2
17:41 47.3 °F 22.3 °F 29.90 in West 17.3 mph 17.3 mph 37% 0.00 in 183.0 W/m2
17:46 47.2 °F 22.9 °F 29.90 in SW 10.4 mph 10.4 mph 38% 0.00 in 163.0 W/m2
17:51 47.4 °F 23.0 °F 29.90 in West 17.3 mph 17.3 mph 38% 0.00 in 146.0 W/m2
17:56 47.3 °F 22.9 °F 29.90 in WSW 11.5 mph 11.5 mph 38% 0.00 in 125.0 W/m2
18:01 47.3 °F 22.9 °F 29.90 in WSW 11.5 mph 11.5 mph 38% 0.00 in 109.0 W/m2
18:06 47.2 °F 23.5 °F 29.89 in SW 12.7 mph 12.7 mph 39% 0.00 in 90.0 W/m2
18:11 46.8 °F 23.1 °F 29.89 in WSW 9.2 mph 9.6 mph 39% 0.00 in 28.0 W/m2
18:16 46.6 °F 23.5 °F 29.89 in WSW 9.0 mph 9.0 mph 40% 0.00 in 25.0 W/m2
18:21 46.4 °F 23.4 °F 29.89 in West 18.4 mph 18.4 mph 40% 0.00 in 23.0 W/m2
18:26 46.3 °F 23.9 °F 29.89 in WSW 10.4 mph 10.4 mph 41% 0.00 in 21.0 W/m2
18:31 46.1 °F 23.7 °F 29.88 in SW 12.0 mph 12.0 mph 41% 0.00 in 16.0 W/m2
18:36 45.9 °F 24.1 °F 29.88 in SW 9.2 mph 9.2 mph 42% 0.00 in 12.0 W/m2
18:41 45.7 °F 24.5 °F 29.88 in SW 11.5 mph 11.5 mph 43% 0.00 in 9.0 W/m2
18:46 45.5 °F 24.3 °F 29.88 in SW 5.8 mph 5.8 mph 43% 0.00 in 7.0 W/m2
18:51 45.3 °F 24.1 °F 29.88 in SW 11.5 mph 11.5 mph 43% 0.00 in 5.0 W/m2
18:56 45.1 °F 24.5 °F 29.88 in SW 11.5 mph 11.5 mph 44% 0.00 in 0.0 W/m2
19:01 44.9 °F 24.3 °F 29.88 in WSW 10.4 mph 10.4 mph 44% 0.00 in 0.0 W/m2
19:07 44.8 °F 24.2 °F 29.87 in SW 10.4 mph 10.4 mph 44% 0.00 in 0.0 W/m2
19:12 44.6 °F 24.5 °F 29.87 in WSW 5.8 mph 5.8 mph 45% 0.00 in 0.0 W/m2
19:17 44.4 °F 24.4 °F 29.87 in WSW 2.3 mph 2.3 mph 45% 0.00 in 0.0 W/m2
19:22 44.0 °F 24.5 °F 29.87 in South 2.3 mph 2.3 mph 46% 0.00 in 0.0 W/m2
19:27 43.6 °F 25.2 °F 29.87 in WSW 2.3 mph 2.3 mph 48% 0.00 in 0.0 W/m2
19:32 43.3 °F 24.9 °F 29.87 in SSW 8.1 mph 8.1 mph 48% 0.00 in 0.0 W/m2
19:37 43.0 °F 25.1 °F 29.87 in WSW 4.0 mph 4.0 mph 49% 0.00 in 0.0 W/m2
19:42 42.8 °F 25.4 °F 29.87 in SW 6.9 mph   50% 0.00 in 0.0 W/m2
19:47 42.6 °F 25.2 °F 29.86 in SSW 5.8 mph 5.8 mph 50% 0.00 in 0.0 W/m2
19:52 42.3 °F 25.0 °F 29.86 in WSW 4.6 mph 4.6 mph 50% 0.00 in 0.0 W/m2
19:57 42.1 °F 25.3 °F 29.86 in WSW 8.1 mph 8.1 mph 51% 0.00 in 0.0 W/m2
20:02 42.0 °F 25.2 °F 29.86 in WSW 1.2 mph 1.2 mph 51% 0.00 in 0.0 W/m2
20:07 41.7 °F 25.4 °F 29.85 in Calm     52% 0.00 in 0.0 W/m2
20:12 41.5 °F 25.2 °F 29.85 in Calm     52% 0.00 in 0.0 W/m2
20:17 41.3 °F 25.0 °F 29.85 in SSW 3.5 mph 3.5 mph 52% 0.00 in 0.0 W/m2
20:22 41.3 °F 25.0 °F 29.84 in SW 1.2 mph 1.2 mph 52% 0.00 in 0.0 W/m2
20:27 41.2 °F 25.3 °F 29.84 in SSW 3.5 mph 3.5 mph 53% 0.00 in 0.0 W/m2
20:32 41.1 °F 25.3 °F 29.84 in SW 1.2 mph 1.2 mph 53% 0.00 in 0.0 W/m2
20:37 41.0 °F 25.2 °F 29.84 in SSW 1.2 mph 1.2 mph 53% 0.00 in 0.0 W/m2
20:42 40.9 °F 25.1 °F 29.84 in SSW 3.5 mph 3.5 mph 53% 0.00 in 0.0 W/m2
20:47 40.9 °F 25.1 °F 29.83 in SSW 6.0 mph 6.0 mph 53% 0.00 in 0.0 W/m2
20:52 40.9 °F 25.1 °F 29.83 in SSW 10.4 mph 10.4 mph 53% 0.00 in 0.0 W/m2
20:57 40.8 °F 25.4 °F 29.83 in SSW 5.0 mph 5.0 mph 54% 0.00 in 0.0 W/m2
21:02 40.6 °F 25.7 °F 29.83 in SW 3.5 mph 3.5 mph 55% 0.00 in 0.0 W/m2
21:07 40.4 °F 25.5 °F 29.83 in SW 1.2 mph 1.2 mph 55% 0.00 in 0.0 W/m2
21:12 40.1 °F 25.6 °F 29.83 in South 2.3 mph 2.3 mph 56% 0.00 in 0.0 W/m2
21:17 39.8 °F 25.4 °F 29.83 in SW 4.6 mph 4.6 mph 56% 0.00 in 0.0 W/m2
21:22 39.6 °F 25.6 °F 29.83 in SSW 1.2 mph 1.2 mph 57% 0.00 in 0.0 W/m2
21:27 39.3 °F 25.7 °F 29.83 in SSW 3.5 mph 3.5 mph 58% 0.00 in 0.0 W/m2
21:32 39.1 °F 25.6 °F 29.82 in SSW 2.3 mph 2.3 mph 58% 0.00 in 0.0 W/m2
21:37 38.8 °F 25.7 °F 29.82 in SSW 2.3 mph 2.3 mph 59% 0.00 in 0.0 W/m2
21:42 38.6 °F 25.9 °F 29.82 in SW 1.2 mph   60% 0.00 in 0.0 W/m2
21:47 38.3 °F 26.0 °F 29.82 in SSW 2.3 mph 2.3 mph 61% 0.00 in 0.0 W/m2
21:52 38.1 °F 25.8 °F 29.82 in SSW 1.2 mph   61% 0.00 in 0.0 W/m2
21:57 37.8 °F 25.9 °F 29.82 in Calm     62% 0.00 in 0.0 W/m2
22:02 37.6 °F 26.1 °F 29.82 in SW 2.3 mph 2.3 mph 63% 0.00 in 0.0 W/m2
22:07 37.5 °F 26.0 °F 29.82 in SW 3.5 mph 3.5 mph 63% 0.00 in 0.0 W/m2
22:12 37.2 °F 26.1 °F 29.82 in WSW 3.5 mph 3.5 mph 64% 0.00 in 0.0 W/m2
22:17 37.1 °F 26.4 °F 29.82 in WSW 3.5 mph 3.5 mph 65% 0.00 in 0.0 W/m2
22:22 37.1 °F 26.4 °F 29.82 in WSW 5.8 mph 5.8 mph 65% 0.00 in 0.0 W/m2
22:27 37.1 °F 26.4 °F 29.82 in WSW 7.0 mph 7.0 mph 65% 0.00 in 0.0 W/m2
22:32 37.1 °F 26.4 °F 29.82 in WSW 6.9 mph 6.9 mph 65% 0.00 in 0.0 W/m2
22:37 37.1 °F 26.4 °F 29.82 in Calm     65% 0.00 in 0.0 W/m2
22:42 37.1 °F 26.8 °F 29.82 in SW 2.3 mph 2.3 mph 66% 0.00 in 0.0 W/m2
22:47 37.1 °F 26.8 °F 29.82 in WSW 2.3 mph 2.3 mph 66% 0.00 in 0.0 W/m2
22:52 37.1 °F 26.8 °F 29.82 in WSW 1.2 mph 1.2 mph 66% 0.00 in 0.0 W/m2
22:57 37.2 °F 26.9 °F 29.82 in WSW 6.0 mph 6.0 mph 66% 0.00 in 0.0 W/m2
23:02 37.4 °F 27.1 °F 29.82 in West 1.2 mph 1.2 mph 66% 0.00 in 0.0 W/m2
23:07 37.6 °F 27.3 °F 29.82 in WSW 4.0 mph 4.0 mph 66% 0.00 in 0.0 W/m2
23:12 37.9 °F 27.2 °F 29.82 in West 2.3 mph 2.3 mph 65% 0.00 in 0.0 W/m2
23:17 38.3 °F 27.6 °F 29.82 in West 10.4 mph 10.4 mph 65% 0.00 in 0.0 W/m2
23:22 38.4 °F 27.3 °F 29.82 in West 5.8 mph 5.8 mph 64% 0.00 in 0.0 W/m2
23:27 38.3 °F 27.2 °F 29.82 in WSW 8.1 mph 8.1 mph 64% 0.00 in 0.0 W/m2
23:32 38.2 °F 27.5 °F 29.82 in West 6.9 mph 6.9 mph 65% 0.00 in 0.0 W/m2
23:37 38.1 °F 27.4 °F 29.82 in WSW 5.8 mph 5.8 mph 65% 0.00 in 0.0 W/m2
23:42 37.9 °F 27.2 °F 29.82 in West 9.2 mph 9.2 mph 65% 0.00 in 0.0 W/m2
23:47 37.9 °F 27.2 °F 29.82 in West 6.9 mph 6.9 mph 65% 0.00 in 0.0 W/m2
23:52 37.8 °F 27.1 °F 29.82 in West 4.6 mph 4.6 mph 65% 0.00 in 0.0 W/m2
23:57 37.7 °F 27.4 °F 29.82 in WSW 5.0 mph 5.0 mph 66% 0.00 in 0.0 W/m2
Bourbonnais, Illinois, USA
Compliments of Weather Underground - 4 mb